TimeEDT,TemperatureF,Dew PointF,Humidity,Sea Level PressureIn,VisibilityMPH,Wind Direction,Wind SpeedMPH,Gust SpeedMPH,PrecipitationIn,Events,Conditions,WindDirDegrees,DateUTC
12:53 AM,66.9,64.9,93,29.91,5.0,ESE,3.5,-,N/A,,Mostly Cloudy,120,2013-07-01 04:53:00
1:23 AM,66.2,64.4,94,29.94,5.0,SE,3.5,-,N/A,,Scattered Clouds,130,2013-07-01 05:23:00
1:46 AM,66.2,64.4,94,29.94,5.0,ESE,4.6,-,N/A,,Mostly Cloudy,120,2013-07-01 05:46:00
1:53 AM,66.9,64.9,93,29.91,4.0,SE,4.6,-,N/A,,Mostly Cloudy,140,2013-07-01 05:53:00
2:01 AM,66.2,64.4,94,29.95,3.0,SSE,4.6,-,0.00,Rain,Light Rain,160,2013-07-01 06:01:00
2:21 AM,66.2,64.4,94,29.94,3.0,SE,5.8,-,0.03,Rain,Light Rain,130,2013-07-01 06:21:00
2:37 AM,66.2,64.4,94,29.93,3.0,ESE,6.9,-,0.04,Rain,Light Rain,120,2013-07-01 06:37:00
2:49 AM,66.2,64.4,94,29.92,2.0,ESE,6.9,-,0.04,Rain,Light Rain,110,2013-07-01 06:49:00
2:53 AM,66.9,64.9,93,29.89,1.5,ESE,5.8,-,0.04,Rain,Light Rain,120,2013-07-01 06:53:00
3:05 AM,66.2,64.4,94,29.92,2.5,ESE,8.1,-,0.00,,Overcast,120,2013-07-01 07:05:00
3:42 AM,66.2,64.4,94,29.92,3.0,NNE,3.5,-,0.00,,Overcast,30,2013-07-01 07:42:00
3:53 AM,66.9,64.9,93,29.90,3.0,Calm,Calm,-,0.00,,Overcast,0,2013-07-01 07:53:00
4:15 AM,66.2,64.4,94,29.93,2.5,Calm,Calm,-,N/A,,Overcast,0,2013-07-01 08:15:00
4:24 AM,66.2,64.4,94,29.93,1.2,East,3.5,-,N/A,,Overcast,100,2013-07-01 08:24:00
4:34 AM,66.2,64.4,94,29.94,0.2,ENE,5.8,-,N/A,Fog,Fog,70,2013-07-01 08:34:00
4:42 AM,66.2,64.4,94,29.95,0.5,Calm,Calm,-,N/A,Fog,Fog,0,2013-07-01 08:42:00
4:49 AM,66.2,64.4,94,29.95,2.0,Calm,Calm,-,N/A,,Overcast,0,2013-07-01 08:49:00
4:53 AM,66.0,64.9,96,29.92,3.0,Calm,Calm,-,N/A,,Overcast,0,2013-07-01 08:53:00
5:01 AM,66.2,64.4,94,29.96,4.0,Calm,Calm,-,N/A,,Overcast,0,2013-07-01 09:01:00
5:11 AM,66.2,64.4,94,29.96,4.0,Calm,Calm,-,N/A,,Overcast,0,2013-07-01 09:11:00
5:45 AM,66.2,64.4,94,29.96,1.8,East,3.5,-,0.04,Rain,Rain,80,2013-07-01 09:45:00
5:49 AM,66.2,64.4,94,29.96,2.0,East,4.6,-,0.05,Rain,Light Rain,80,2013-07-01 09:49:00
5:53 AM,66.0,64.9,96,29.94,2.5,East,4.6,-,0.05,Rain,Light Rain,80,2013-07-01 09:53:00
6:02 AM,66.2,64.4,94,29.97,1.5,East,3.5,-,0.00,Rain,Light Rain,80,2013-07-01 10:02:00
6:18 AM,66.2,64.4,94,29.97,0.5,ENE,3.5,-,0.00,Fog,Fog,60,2013-07-01 10:18:00
6:25 AM,66.2,64.4,94,29.97,0.2,ENE,4.6,-,0.00,Fog,Fog,60,2013-07-01 10:25:00
6:34 AM,66.2,64.4,94,29.97,0.2,ENE,3.5,-,0.00,Fog-Rain,Light Rain,60,2013-07-01 10:34:00
6:48 AM,66.2,64.4,94,29.97,0.8,ENE,3.5,-,0.00,Rain,Light Rain,60,2013-07-01 10:48:00
6:53 AM,66.0,64.9,96,29.94,1.8,ENE,3.5,-,0.00,Rain,Light Rain,60,2013-07-01 10:53:00
7:10 AM,66.2,64.4,94,29.96,1.5,NE,4.6,-,0.00,Rain,Light Rain,40,2013-07-01 11:10:00
7:35 AM,66.2,64.4,94,29.97,1.2,NE,5.8,-,0.00,Rain,Light Rain,50,2013-07-01 11:35:00
7:53 AM,66.0,64.9,96,29.96,2.0,ENE,3.5,-,0.01,Rain,Light Rain,60,2013-07-01 11:53:00
8:03 AM,66.2,64.4,94,29.98,1.8,East,3.5,-,0.01,Rain,Light Rain,80,2013-07-01 12:03:00
8:10 AM,66.2,64.4,94,29.98,2.0,East,3.5,-,0.01,Rain,Light Rain,90,2013-07-01 12:10:00
8:26 AM,66.2,64.4,94,29.98,0.8,ENE,4.6,-,0.02,Rain,Light Rain,70,2013-07-01 12:26:00
8:42 AM,66.2,64.4,94,29.99,2.0,East,3.5,-,0.03,Rain,Light Rain,90,2013-07-01 12:42:00
8:53 AM,66.9,64.9,93,29.96,2.0,ESE,5.8,-,0.03,Rain,Light Rain,110,2013-07-01 12:53:00
9:53 AM,66.9,66.0,97,29.96,2.0,East,6.9,-,0.01,,Overcast,100,2013-07-01 13:53:00
10:12 AM,68.0,66.2,94,29.99,3.0,ESE,5.8,-,N/A,,Overcast,110,2013-07-01 14:12:00
10:53 AM,68.0,66.0,93,29.97,3.0,ESE,3.5,-,0.00,,Overcast,120,2013-07-01 14:53:00
11:53 AM,69.1,66.9,93,29.96,6.0,East,6.9,-,0.00,,Overcast,100,2013-07-01 15:53:00
12:53 PM,70.0,66.9,90,29.95,9.0,ESE,5.8,-,N/A,,Overcast,120,2013-07-01 16:53:00
1:10 PM,69.8,68.0,94,29.97,9.0,ESE,6.9,-,N/A,,Overcast,110,2013-07-01 17:10:00
1:53 PM,72.0,69.1,91,29.94,10.0,SE,9.2,-,N/A,,Overcast,130,2013-07-01 17:53:00
2:14 PM,71.6,68.0,88,29.96,1.8,South,11.5,-,0.02,Rain,Rain,170,2013-07-01 18:14:00
2:22 PM,69.8,68.0,94,29.96,3.0,SSE,8.1,-,0.04,Rain,Light Rain,150,2013-07-01 18:22:00
2:53 PM,71.1,68.0,90,29.94,9.0,South,6.9,-,0.04,Rain,Light Rain,180,2013-07-01 18:53:00
3:00 PM,71.6,68.0,88,29.97,6.0,South,8.1,-,0.01,Rain,Rain,190,2013-07-01 19:00:00
3:53 PM,71.1,66.9,87,29.94,10.0,WSW,5.8,-,0.03,,Overcast,240,2013-07-01 19:53:00
4:00 PM,71.6,66.2,83,29.97,10.0,West,5.8,-,0.00,Rain,Light Rain,260,2013-07-01 20:00:00
4:09 PM,71.6,68.0,88,29.96,10.0,WNW,4.6,-,0.00,Rain,Light Rain,300,2013-07-01 20:09:00
4:26 PM,69.8,68.0,94,29.96,7.0,North,5.8,-,0.00,Rain,Light Rain,350,2013-07-01 20:26:00
4:50 PM,69.8,66.2,88,29.96,1.8,NNW,6.9,-,0.03,Rain,Rain,330,2013-07-01 20:50:00
4:53 PM,69.1,66.9,93,29.94,1.8,NNW,9.2,-,0.04,Rain,Rain,340,2013-07-01 20:53:00
4:58 PM,69.8,66.2,88,29.96,2.0,NNW,5.8,-,0.02,Rain,Rain,330,2013-07-01 20:58:00
5:04 PM,69.8,66.2,88,29.96,1.8,WNW,5.8,-,0.03,Rain,Heavy Rain,300,2013-07-01 21:04:00
5:40 PM,68.0,66.2,94,29.96,0.8,North,9.2,-,0.35,Rain,Heavy Rain,350,2013-07-01 21:40:00
5:53 PM,68.0,66.9,96,29.94,0.5,SSE,5.8,25.3,0.77,Fog-Rain,Heavy Rain,150,2013-07-01 21:53:00
6:03 PM,68.0,66.2,94,29.97,1.5,NNE,3.5,-,0.10,Rain,Light Rain,20,2013-07-01 22:03:00
6:06 PM,68.0,66.2,94,29.97,2.0,NNW,3.5,-,0.10,Rain,Light Rain,330,2013-07-01 22:06:00
6:35 PM,68.0,66.2,94,29.98,1.5,NW,6.9,-,0.16,Rain,Rain,320,2013-07-01 22:35:00
6:53 PM,68.0,66.9,96,29.97,1.0,SW,3.5,-,0.46,Rain,Heavy Rain,220,2013-07-01 22:53:00
6:56 PM,68.0,66.2,94,29.99,1.0,Calm,Calm,-,0.03,Rain,Heavy Rain,0,2013-07-01 22:56:00
7:05 PM,68.0,66.2,94,29.99,1.0,South,3.5,-,0.05,Rain,Rain,190,2013-07-01 23:05:00
7:14 PM,68.0,66.2,94,29.99,1.0,West,5.8,-,0.08,Rain,Rain,280,2013-07-01 23:14:00
7:18 PM,68.0,66.2,94,29.99,0.8,WNW,6.9,-,0.09,Rain,Rain,290,2013-07-01 23:18:00
7:29 PM,68.0,66.2,94,30.00,0.8,WNW,4.6,-,0.15,Rain,Heavy Rain,300,2013-07-01 23:29:00
7:41 PM,68.0,66.2,94,30.00,0.8,West,6.9,-,0.21,Rain,Heavy Rain,280,2013-07-01 23:41:00
7:48 PM,68.0,66.2,94,30.00,2.0,West,3.5,-,0.27,Rain,Heavy Rain,280,2013-07-01 23:48:00
7:53 PM,68.0,66.0,93,29.98,2.0,Calm,Calm,-,0.29,Rain,Rain,0,2013-07-01 23:53:00
8:06 PM,68.0,66.2,94,30.00,4.0,Calm,Calm,-,0.01,Rain,Light Rain,0,2013-07-02 00:06:00
8:53 PM,68.0,66.0,93,30.00,10.0,Calm,Calm,-,0.03,,Overcast,0,2013-07-02 00:53:00
9:53 PM,68.0,66.0,93,30.01,10.0,Calm,Calm,-,N/A,,Overcast,0,2013-07-02 01:53:00
10:14 PM,66.2,66.2,100,30.04,1.5,SSE,4.6,-,N/A,,Overcast,160,2013-07-02 02:14:00
10:17 PM,66.2,66.2,100,30.04,0.8,Calm,Calm,-,N/A,,Overcast,0,2013-07-02 02:17:00
10:32 PM,66.2,66.2,100,30.04,0.8,Calm,Calm,-,N/A,,Overcast,0,2013-07-02 02:32:00
10:53 PM,66.9,66.0,97,30.01,0.8,Calm,Calm,-,N/A,,Overcast,0,2013-07-02 02:53:00
11:01 PM,66.2,66.2,100,30.03,1.8,Calm,Calm,-,N/A,,Mostly Cloudy,0,2013-07-02 03:01:00
11:03 PM,66.2,66.2,100,30.03,3.0,Calm,Calm,-,N/A,,Mostly Cloudy,0,2013-07-02 03:03:00
11:17 PM,66.2,64.4,94,30.03,1.8,Calm,Calm,-,N/A,,Partly Cloudy,0,2013-07-02 03:17:00
11:35 PM,66.2,64.4,94,30.03,3.0,Calm,Calm,-,N/A,,Scattered Clouds,0,2013-07-02 03:35:00
11:42 PM,66.2,64.4,94,30.03,8.0,Calm,Calm,-,N/A,,Mostly Cloudy,0,2013-07-02 03:42:00
11:53 PM,66.9,66.0,97,30.01,6.0,Calm,Calm,-,N/A,,Overcast,0,2013-07-02 03:53:00